sensor_id;sensor_type;location;lat;lon;timestamp;P1;durP1;ratioP1;P2;durP2;ratioP2
53618;SDS011;68717;53.040;18.488;2023-05-18T00:00:08;10.90;;;3.05;;
53618;SDS011;68717;53.040;18.488;2023-05-18T00:00:45;11.35;;;3.13;;
53618;SDS011;68717;53.040;18.488;2023-05-18T00:01:05;9.80;;;3.00;;
53618;SDS011;68717;53.040;18.488;2023-05-18T00:01:19;10.20;;;2.75;;
53618;SDS011;68717;53.040;18.488;2023-05-18T00:01:33;11.30;;;2.80;;
53618;SDS011;68717;53.040;18.488;2023-05-18T00:01:46;10.90;;;2.97;;
53618;SDS011;68717;53.040;18.488;2023-05-18T00:01:59;10.43;;;2.88;;
53618;SDS011;68717;53.040;18.488;2023-05-18T00:02:13;9.18;;;2.80;;
53618;SDS011;68717;53.040;18.488;2023-05-18T00:02:26;8.57;;;2.90;;
53618;SDS011;68717;53.040;18.488;2023-05-18T00:02:40;8.35;;;2.78;;
53618;SDS011;68717;53.040;18.488;2023-05-18T00:02:53;8.85;;;2.90;;
53618;SDS011;68717;53.040;18.488;2023-05-18T00:03:06;10.13;;;2.95;;
53618;SDS011;68717;53.040;18.488;2023-05-18T00:03:19;10.98;;;3.03;;
53618;SDS011;68717;53.040;18.488;2023-05-18T00:03:32;11.43;;;3.10;;
53618;SDS011;68717;53.040;18.488;2023-05-18T00:03:45;9.82;;;2.88;;
53618;SDS011;68717;53.040;18.488;2023-05-18T00:03:58;8.93;;;2.75;;
53618;SDS011;68717;53.040;18.488;2023-05-18T00:04:13;8.65;;;2.72;;
53618;SDS011;68717;53.040;18.488;2023-05-18T00:04:28;10.90;;;3.00;;
53618;SDS011;68717;53.040;18.488;2023-05-18T00:04:40;12.80;;;3.17;;
53618;SDS011;68717;53.040;18.488;2023-05-18T00:04:54;11.63;;;3.13;;
53618;SDS011;68717;53.040;18.488;2023-05-18T00:05:06;9.77;;;2.97;;
53618;SDS011;68717;53.040;18.488;2023-05-18T00:05:21;11.18;;;3.00;;
53618;SDS011;68717;53.040;18.488;2023-05-18T00:05:35;11.00;;;2.78;;
53618;SDS011;68717;53.040;18.488;2023-05-18T00:05:48;12.05;;;2.75;;
53618;SDS011;68717;53.040;18.488;2023-05-18T00:06:01;11.93;;;2.97;;
53618;SDS011;68717;53.040;18.488;2023-05-18T00:06:18;9.25;;;2.83;;
53618;SDS011;68717;53.040;18.488;2023-05-18T00:06:30;8.73;;;2.78;;
53618;SDS011;68717;53.040;18.488;2023-05-18T00:06:43;10.95;;;2.83;;
53618;SDS011;68717;53.040;18.488;2023-05-18T00:06:55;11.60;;;2.78;;
53618;SDS011;68717;53.040;18.488;2023-05-18T00:07:09;10.77;;;2.60;;
53618;SDS011;68717;53.040;18.488;2023-05-18T00:07:22;10.45;;;2.75;;
53618;SDS011;68717;53.040;18.488;2023-05-18T00:07:34;11.55;;;2.80;;
53618;SDS011;68717;53.040;18.488;2023-05-18T00:07:48;10.77;;;2.72;;
53618;SDS011;68717;53.040;18.488;2023-05-18T00:08:01;8.52;;;2.60;;
53618;SDS011;68717;53.040;18.488;2023-05-18T00:08:13;8.80;;;2.70;;
53618;SDS011;68717;53.040;18.488;2023-05-18T00:08:26;10.30;;;2.78;;
53618;SDS011;68717;53.040;18.488;2023-05-18T00:08:39;12.07;;;3.10;;
53618;SDS011;68717;53.040;18.488;2023-05-18T00:08:51;10.38;;;3.30;;
53618;SDS011;68717;53.040;18.488;2023-05-18T00:09:04;9.75;;;3.05;;
53618;SDS011;68717;53.040;18.488;2023-05-18T00:09:17;10.18;;;2.72;;
53618;SDS011;68717;53.040;18.488;2023-05-18T00:09:31;10.43;;;2.78;;
53618;SDS011;68717;53.040;18.488;2023-05-18T00:09:45;9.25;;;2.58;;
53618;SDS011;68717;53.040;18.488;2023-05-18T00:09:57;10.15;;;2.80;;
53618;SDS011;68717;53.040;18.488;2023-05-18T00:10:10;11.35;;;2.90;;
53618;SDS011;68717;53.040;18.488;2023-05-18T00:10:22;10.77;;;2.85;;
53618;SDS011;68717;53.040;18.488;2023-05-18T00:10:35;11.10;;;2.83;;
53618;SDS011;68717;53.040;18.488;2023-05-18T00:10:48;10.07;;;2.72;;
53618;SDS011;68717;53.040;18.488;2023-05-18T00:11:02;7.93;;;2.60;;
53618;SDS011;68717;53.040;18.488;2023-05-18T00:11:16;10.07;;;2.88;;
53618;SDS011;68717;53.040;18.488;2023-05-18T00:11:29;11.50;;;2.85;;
53618;SDS011;68717;53.040;18.488;2023-05-18T00:11:41;10.45;;;2.75;;
53618;SDS011;68717;53.040;18.488;2023-05-18T00:11:54;10.27;;;2.88;;
53618;SDS011;68717;53.040;18.488;2023-05-18T00:12:07;10.63;;;3.13;;
53618;SDS011;68717;53.040;18.488;2023-05-18T00:12:21;12.02;;;3.08;;
53618;SDS011;68717;53.040;18.488;2023-05-18T00:12:34;13.55;;;2.90;;
53618;SDS011;68717;53.040;18.488;2023-05-18T00:12:47;14.63;;;2.92;;
53618;SDS011;68717;53.040;18.488;2023-05-18T00:12:59;15.52;;;3.10;;
53618;SDS011;68717;53.040;18.488;2023-05-18T00:13:12;12.05;;;3.00;;
53618;SDS011;68717;53.040;18.488;2023-05-18T00:13:25;8.82;;;2.70;;
53618;SDS011;68717;53.040;18.488;2023-05-18T00:13:37;11.75;;;2.60;;
53618;SDS011;68717;53.040;18.488;2023-05-18T00:13:50;13.80;;;2.60;;
53618;SDS011;68717;53.040;18.488;2023-05-18T00:14:03;12.77;;;2.67;;
53618;SDS011;68717;53.040;18.488;2023-05-18T00:14:16;9.95;;;2.70;;
53618;SDS011;68717;53.040;18.488;2023-05-18T00:14:29;10.95;;;2.90;;
53618;SDS011;68717;53.040;18.488;2023-05-18T00:14:41;11.40;;;3.10;;
53618;SDS011;68717;53.040;18.488;2023-05-18T00:14:54;10.40;;;2.90;;
53618;SDS011;68717;53.040;18.488;2023-05-18T00:15:07;9.75;;;2.75;;
53618;SDS011;68717;53.040;18.488;2023-05-18T00:15:21;8.80;;;2.80;;
53618;SDS011;68717;53.040;18.488;2023-05-18T00:15:35;10.70;;;3.00;;
53618;SDS011;68717;53.040;18.488;2023-05-18T00:15:47;13.05;;;3.42;;
53618;SDS011;68717;53.040;18.488;2023-05-18T00:16:00;13.10;;;3.30;;
53618;SDS011;68717;53.040;18.488;2023-05-18T00:16:12;12.98;;;3.42;;
53618;SDS011;68717;53.040;18.488;2023-05-18T00:16:27;13.57;;;3.53;;
53618;SDS011;68717;53.040;18.488;2023-05-18T00:16:39;13.35;;;3.28;;
53618;SDS011;68717;53.040;18.488;2023-05-18T00:16:52;12.55;;;3.13;;
53618;SDS011;68717;53.040;18.488;2023-05-18T00:17:07;11.80;;;2.92;;
53618;SDS011;68717;53.040;18.488;2023-05-18T00:17:19;11.13;;;2.90;;
53618;SDS011;68717;53.040;18.488;2023-05-18T00:17:32;10.02;;;2.95;;
53618;SDS011;68717;53.040;18.488;2023-05-18T00:17:45;10.95;;;2.83;;
53618;SDS011;68717;53.040;18.488;2023-05-18T00:17:58;11.75;;;3.22;;
53618;SDS011;68717;53.040;18.488;2023-05-18T00:18:10;12.82;;;3.35;;
53618;SDS011;68717;53.040;18.488;2023-05-18T00:18:23;13.05;;;3.25;;
53618;SDS011;68717;53.040;18.488;2023-05-18T00:18:38;11.63;;;3.45;;
53618;SDS011;68717;53.040;18.488;2023-05-18T00:18:51;13.00;;;3.55;;
53618;SDS011;68717;53.040;18.488;2023-05-18T00:19:05;12.25;;;3.47;;
53618;SDS011;68717;53.040;18.488;2023-05-18T00:19:19;10.57;;;3.30;;
53618;SDS011;68717;53.040;18.488;2023-05-18T00:19:32;10.38;;;3.28;;
53618;SDS011;68717;53.040;18.488;2023-05-18T00:19:44;11.85;;;3.22;;
53618;SDS011;68717;53.040;18.488;2023-05-18T00:20:01;12.48;;;3.47;;
53618;SDS011;68717;53.040;18.488;2023-05-18T00:20:16;11.10;;;3.72;;
53618;SDS011;68717;53.040;18.488;2023-05-18T00:20:34;11.02;;;3.50;;
53618;SDS011;68717;53.040;18.488;2023-05-18T00:20:47;12.18;;;3.53;;
53618;SDS011;68717;53.040;18.488;2023-05-18T00:21:01;12.00;;;3.50;;
53618;SDS011;68717;53.040;18.488;2023-05-18T00:21:14;11.18;;;3.60;;
53618;SDS011;68717;53.040;18.488;2023-05-18T00:21:27;10.85;;;3.63;;
53618;SDS011;68717;53.040;18.488;2023-05-18T00:21:42;11.68;;;3.55;;
53618;SDS011;68717;53.040;18.488;2023-05-18T00:21:57;14.23;;;3.53;;
53618;SDS011;68717;53.040;18.488;2023-05-18T00:22:13;11.90;;;3.35;;
53618;SDS011;68717;53.040;18.488;2023-05-18T00:22:29;10.38;;;3.50;;
53618;SDS011;68717;53.040;18.488;2023-05-18T00:22:41;9.93;;;3.65;;
53618;SDS011;68717;53.040;18.488;2023-05-18T00:22:54;11.48;;;3.70;;
53618;SDS011;68717;53.040;18.488;2023-05-18T00:23:07;14.00;;;3.90;;
53618;SDS011;68717;53.040;18.488;2023-05-18T00:23:21;13.60;;;3.67;;
53618;SDS011;68717;53.040;18.488;2023-05-18T00:23:35;10.50;;;3.95;;
53618;SDS011;68717;53.040;18.488;2023-05-18T00:23:50;11.13;;;4.40;;
53618;SDS011;68717;53.040;18.488;2023-05-18T00:24:03;10.73;;;4.28;;
53618;SDS011;68717;53.040;18.488;2023-05-18T00:24:16;13.88;;;4.03;;
53618;SDS011;68717;53.040;18.488;2023-05-18T00:24:29;14.10;;;3.88;;
53618;SDS011;68717;53.040;18.488;2023-05-18T00:24:42;10.40;;;3.80;;
53618;SDS011;68717;53.040;18.488;2023-05-18T00:24:55;9.65;;;3.80;;
53618;SDS011;68717;53.040;18.488;2023-05-18T00:25:08;10.52;;;3.90;;
53618;SDS011;68717;53.040;18.488;2023-05-18T00:25:21;11.63;;;3.72;;
53618;SDS011;68717;53.040;18.488;2023-05-18T00:25:34;12.43;;;3.80;;
53618;SDS011;68717;53.040;18.488;2023-05-18T00:25:46;11.88;;;3.55;;
53618;SDS011;68717;53.040;18.488;2023-05-18T00:25:59;11.38;;;3.50;;
53618;SDS011;68717;53.040;18.488;2023-05-18T00:26:13;11.65;;;3.78;;
53618;SDS011;68717;53.040;18.488;2023-05-18T00:26:26;12.65;;;3.92;;
53618;SDS011;68717;53.040;18.488;2023-05-18T00:26:39;13.38;;;4.00;;
53618;SDS011;68717;53.040;18.488;2023-05-18T00:26:53;14.27;;;4.00;;
53618;SDS011;68717;53.040;18.488;2023-05-18T00:27:05;14.60;;;4.00;;
53618;SDS011;68717;53.040;18.488;2023-05-18T00:27:18;12.15;;;3.70;;
53618;SDS011;68717;53.040;18.488;2023-05-18T00:27:31;12.65;;;3.88;;
53618;SDS011;68717;53.040;18.488;2023-05-18T00:27:43;11.00;;;3.83;;
53618;SDS011;68717;53.040;18.488;2023-05-18T00:27:57;10.85;;;3.67;;
53618;SDS011;68717;53.040;18.488;2023-05-18T00:28:10;10.68;;;3.60;;
53618;SDS011;68717;53.040;18.488;2023-05-18T00:28:23;12.82;;;3.90;;
53618;SDS011;68717;53.040;18.488;2023-05-18T00:28:36;14.43;;;4.13;;
53618;SDS011;68717;53.040;18.488;2023-05-18T00:28:49;13.45;;;4.30;;
53618;SDS011;68717;53.040;18.488;2023-05-18T00:29:01;13.23;;;4.28;;
53618;SDS011;68717;53.040;18.488;2023-05-18T00:29:14;12.10;;;4.05;;
53618;SDS011;68717;53.040;18.488;2023-05-18T00:29:28;11.40;;;4.00;;
53618;SDS011;68717;53.040;18.488;2023-05-18T00:29:40;10.75;;;4.05;;
53618;SDS011;68717;53.040;18.488;2023-05-18T00:29:53;10.40;;;4.10;;
53618;SDS011;68717;53.040;18.488;2023-05-18T00:30:06;11.98;;;4.10;;
53618;SDS011;68717;53.040;18.488;2023-05-18T00:30:19;12.05;;;3.72;;
53618;SDS011;68717;53.040;18.488;2023-05-18T00:30:32;11.60;;;3.80;;
53618;SDS011;68717;53.040;18.488;2023-05-18T00:30:45;11.60;;;3.97;;
53618;SDS011;68717;53.040;18.488;2023-05-18T00:30:58;10.93;;;3.88;;
53618;SDS011;68717;53.040;18.488;2023-05-18T00:31:11;11.43;;;3.95;;
53618;SDS011;68717;53.040;18.488;2023-05-18T00:31:24;14.10;;;4.15;;
53618;SDS011;68717;53.040;18.488;2023-05-18T00:31:37;13.57;;;4.15;;
53618;SDS011;68717;53.040;18.488;2023-05-18T00:31:50;12.90;;;4.18;;
53618;SDS011;68717;53.040;18.488;2023-05-18T00:32:03;13.15;;;4.00;;
53618;SDS011;68717;53.040;18.488;2023-05-18T00:32:16;13.13;;;3.65;;
53618;SDS011;68717;53.040;18.488;2023-05-18T00:32:28;13.10;;;3.70;;
53618;SDS011;68717;53.040;18.488;2023-05-18T00:32:42;12.40;;;3.70;;
53618;SDS011;68717;53.040;18.488;2023-05-18T00:32:55;12.13;;;3.70;;
53618;SDS011;68717;53.040;18.488;2023-05-18T00:33:08;12.30;;;3.78;;
53618;SDS011;68717;53.040;18.488;2023-05-18T00:33:20;11.27;;;3.97;;
53618;SDS011;68717;53.040;18.488;2023-05-18T00:33:33;9.13;;;3.78;;
53618;SDS011;68717;53.040;18.488;2023-05-18T00:33:46;10.43;;;3.75;;
53618;SDS011;68717;53.040;18.488;2023-05-18T00:33:58;11.27;;;3.90;;
53618;SDS011;68717;53.040;18.488;2023-05-18T00:34:12;11.88;;;4.13;;
53618;SDS011;68717;53.040;18.488;2023-05-18T00:34:26;11.23;;;4.03;;
53618;SDS011;68717;53.040;18.488;2023-05-18T00:34:38;11.25;;;3.83;;
53618;SDS011;68717;53.040;18.488;2023-05-18T00:34:51;11.95;;;3.85;;
53618;SDS011;68717;53.040;18.488;2023-05-18T00:35:04;12.45;;;4.18;;
53618;SDS011;68717;53.040;18.488;2023-05-18T00:35:17;12.48;;;4.28;;
53618;SDS011;68717;53.040;18.488;2023-05-18T00:35:31;11.93;;;4.00;;
53618;SDS011;68717;53.040;18.488;2023-05-18T00:35:45;11.98;;;4.10;;
53618;SDS011;68717;53.040;18.488;2023-05-18T00:35:57;12.40;;;4.22;;
53618;SDS011;68717;53.040;18.488;2023-05-18T00:36:10;14.02;;;4.30;;
53618;SDS011;68717;53.040;18.488;2023-05-18T00:36:23;12.52;;;4.10;;
53618;SDS011;68717;53.040;18.488;2023-05-18T00:36:37;11.23;;;4.00;;
53618;SDS011;68717;53.040;18.488;2023-05-18T00:36:50;11.50;;;3.92;;
53618;SDS011;68717;53.040;18.488;2023-05-18T00:37:04;12.65;;;3.83;;
53618;SDS011;68717;53.040;18.488;2023-05-18T00:37:16;11.70;;;3.80;;
53618;SDS011;68717;53.040;18.488;2023-05-18T00:37:29;10.70;;;3.63;;
53618;SDS011;68717;53.040;18.488;2023-05-18T00:37:41;10.68;;;3.38;;
53618;SDS011;68717;53.040;18.488;2023-05-18T00:37:54;11.77;;;3.45;;
53618;SDS011;68717;53.040;18.488;2023-05-18T00:38:06;11.73;;;3.65;;
53618;SDS011;68717;53.040;18.488;2023-05-18T00:38:19;11.93;;;3.65;;
53618;SDS011;68717;53.040;18.488;2023-05-18T00:38:33;11.15;;;3.58;;
53618;SDS011;68717;53.040;18.488;2023-05-18T00:38:45;12.15;;;3.97;;
53618;SDS011;68717;53.040;18.488;2023-05-18T00:38:58;12.65;;;4.03;;
53618;SDS011;68717;53.040;18.488;2023-05-18T00:39:11;11.60;;;3.75;;
53618;SDS011;68717;53.040;18.488;2023-05-18T00:39:24;10.32;;;3.40;;
53618;SDS011;68717;53.040;18.488;2023-05-18T00:39:36;9.13;;;3.38;;
53618;SDS011;68717;53.040;18.488;2023-05-18T00:39:49;9.15;;;3.40;;
53618;SDS011;68717;53.040;18.488;2023-05-18T00:40:03;10.48;;;3.53;;
53618;SDS011;68717;53.040;18.488;2023-05-18T00:40:17;12.48;;;3.72;;
53618;SDS011;68717;53.040;18.488;2023-05-18T00:40:30;11.23;;;3.70;;
53618;SDS011;68717;53.040;18.488;2023-05-18T00:40:43;9.65;;;3.70;;
53618;SDS011;68717;53.040;18.488;2023-05-18T00:40:56;10.30;;;3.67;;
53618;SDS011;68717;53.040;18.488;2023-05-18T00:41:09;11.48;;;3.72;;
53618;SDS011;68717;53.040;18.488;2023-05-18T00:41:21;11.20;;;3.60;;
53618;SDS011;68717;53.040;18.488;2023-05-18T00:41:34;13.38;;;3.95;;
53618;SDS011;68717;53.040;18.488;2023-05-18T00:41:48;12.32;;;3.90;;
53618;SDS011;68717;53.040;18.488;2023-05-18T00:42:00;10.18;;;3.40;;
53618;SDS011;68717;53.040;18.488;2023-05-18T00:42:13;11.10;;;3.30;;
53618;SDS011;68717;53.040;18.488;2023-05-18T00:42:26;11.65;;;3.78;;
53618;SDS011;68717;53.040;18.488;2023-05-18T00:42:39;10.82;;;3.80;;
53618;SDS011;68717;53.040;18.488;2023-05-18T00:42:51;12.77;;;3.63;;
53618;SDS011;68717;53.040;18.488;2023-05-18T00:43:04;11.98;;;3.42;;
53618;SDS011;68717;53.040;18.488;2023-05-18T00:43:17;11.43;;;3.40;;
53618;SDS011;68717;53.040;18.488;2023-05-18T00:43:30;11.05;;;3.45;;
53618;SDS011;68717;53.040;18.488;2023-05-18T00:43:43;12.85;;;3.75;;
53618;SDS011;68717;53.040;18.488;2023-05-18T00:43:55;13.48;;;4.00;;
53618;SDS011;68717;53.040;18.488;2023-05-18T00:44:08;12.13;;;3.92;;
53618;SDS011;68717;53.040;18.488;2023-05-18T00:44:21;11.57;;;3.72;;
53618;SDS011;68717;53.040;18.488;2023-05-18T00:44:33;11.73;;;3.58;;
53618;SDS011;68717;53.040;18.488;2023-05-18T00:44:46;10.40;;;3.42;;
53618;SDS011;68717;53.040;18.488;2023-05-18T00:44:59;12.15;;;3.60;;
53618;SDS011;68717;53.040;18.488;2023-05-18T00:45:12;13.38;;;3.50;;
53618;SDS011;68717;53.040;18.488;2023-05-18T00:45:24;13.55;;;3.45;;
53618;SDS011;68717;53.040;18.488;2023-05-18T00:45:39;13.25;;;3.70;;
53618;SDS011;68717;53.040;18.488;2023-05-18T00:45:52;13.00;;;3.88;;
53618;SDS011;68717;53.040;18.488;2023-05-18T00:46:04;13.35;;;3.80;;
53618;SDS011;68717;53.040;18.488;2023-05-18T00:46:18;14.60;;;3.83;;
53618;SDS011;68717;53.040;18.488;2023-05-18T00:46:31;12.05;;;3.65;;
53618;SDS011;68717;53.040;18.488;2023-05-18T00:46:44;10.18;;;3.58;;
53618;SDS011;68717;53.040;18.488;2023-05-18T00:46:58;11.40;;;3.80;;
53618;SDS011;68717;53.040;18.488;2023-05-18T00:47:11;10.98;;;3.80;;
53618;SDS011;68717;53.040;18.488;2023-05-18T00:47:23;10.20;;;3.63;;
53618;SDS011;68717;53.040;18.488;2023-05-18T00:47:36;10.82;;;3.60;;
53618;SDS011;68717;53.040;18.488;2023-05-18T00:47:49;11.98;;;3.40;;
53618;SDS011;68717;53.040;18.488;2023-05-18T00:48:01;12.50;;;3.50;;
53618;SDS011;68717;53.040;18.488;2023-05-18T00:48:14;9.88;;;3.38;;
53618;SDS011;68717;53.040;18.488;2023-05-18T00:48:28;9.48;;;3.40;;
53618;SDS011;68717;53.040;18.488;2023-05-18T00:48:40;9.70;;;3.35;;
53618;SDS011;68717;53.040;18.488;2023-05-18T00:48:54;10.30;;;3.36;;
53618;SDS011;68717;53.040;18.488;2023-05-18T00:49:08;11.15;;;3.47;;
53618;SDS011;68717;53.040;18.488;2023-05-18T00:49:21;10.35;;;3.50;;
53618;SDS011;68717;53.040;18.488;2023-05-18T00:49:34;11.35;;;3.50;;
53618;SDS011;68717;53.040;18.488;2023-05-18T00:49:47;10.70;;;3.58;;
53618;SDS011;68717;53.040;18.488;2023-05-18T00:50:00;13.63;;;3.88;;
53618;SDS011;68717;53.040;18.488;2023-05-18T00:50:13;13.68;;;3.90;;
53618;SDS011;68717;53.040;18.488;2023-05-18T00:50:26;13.43;;;3.80;;
53618;SDS011;68717;53.040;18.488;2023-05-18T00:50:39;13.80;;;3.83;;
53618;SDS011;68717;53.040;18.488;2023-05-18T00:50:53;13.07;;;3.65;;
53618;SDS011;68717;53.040;18.488;2023-05-18T00:51:06;12.35;;;3.50;;
53618;SDS011;68717;53.040;18.488;2023-05-18T00:51:19;12.13;;;3.55;;
53618;SDS011;68717;53.040;18.488;2023-05-18T00:51:34;12.55;;;3.60;;
53618;SDS011;68717;53.040;18.488;2023-05-18T00:51:47;12.13;;;3.58;;
53618;SDS011;68717;53.040;18.488;2023-05-18T00:52:01;11.13;;;3.45;;
53618;SDS011;68717;53.040;18.488;2023-05-18T00:52:14;10.80;;;3.40;;
53618;SDS011;68717;53.040;18.488;2023-05-18T00:52:27;11.68;;;3.55;;
53618;SDS011;68717;53.040;18.488;2023-05-18T00:52:40;11.10;;;3.63;;
53618;SDS011;68717;53.040;18.488;2023-05-18T00:52:54;10.82;;;3.50;;
53618;SDS011;68717;53.040;18.488;2023-05-18T00:53:07;12.02;;;3.55;;
53618;SDS011;68717;53.040;18.488;2023-05-18T00:53:21;12.63;;;3.63;;
53618;SDS011;68717;53.040;18.488;2023-05-18T00:53:34;11.55;;;3.55;;
53618;SDS011;68717;53.040;18.488;2023-05-18T00:53:48;11.55;;;3.72;;
53618;SDS011;68717;53.040;18.488;2023-05-18T00:54:01;11.80;;;3.90;;
53618;SDS011;68717;53.040;18.488;2023-05-18T00:54:14;11.70;;;3.72;;
53618;SDS011;68717;53.040;18.488;2023-05-18T00:54:28;11.05;;;3.53;;
53618;SDS011;68717;53.040;18.488;2023-05-18T00:54:40;10.25;;;3.50;;
53618;SDS011;68717;53.040;18.488;2023-05-18T00:54:54;9.85;;;3.55;;
53618;SDS011;68717;53.040;18.488;2023-05-18T00:55:09;9.70;;;3.40;;
53618;SDS011;68717;53.040;18.488;2023-05-18T00:55:25;9.27;;;3.50;;
53618;SDS011;68717;53.040;18.488;2023-05-18T00:55:39;10.93;;;3.70;;
53618;SDS011;68717;53.040;18.488;2023-05-18T00:55:52;11.98;;;3.72;;
53618;SDS011;68717;53.040;18.488;2023-05-18T00:56:05;12.02;;;3.83;;
53618;SDS011;68717;53.040;18.488;2023-05-18T00:56:19;12.70;;;3.80;;
53618;SDS011;68717;53.040;18.488;2023-05-18T00:56:34;11.15;;;3.60;;
53618;SDS011;68717;53.040;18.488;2023-05-18T00:56:52;12.32;;;3.60;;
53618;SDS011;68717;53.040;18.488;2023-05-18T00:57:06;14.25;;;3.50;;
53618;SDS011;68717;53.040;18.488;2023-05-18T00:57:18;16.15;;;3.58;;
53618;SDS011;68717;53.040;18.488;2023-05-18T00:57:31;14.88;;;3.85;;
53618;SDS011;68717;53.040;18.488;2023-05-18T00:57:44;12.93;;;3.88;;
53618;SDS011;68717;53.040;18.488;2023-05-18T00:57:59;10.15;;;3.38;;
53618;SDS011;68717;53.040;18.488;2023-05-18T00:58:13;10.32;;;3.30;;
53618;SDS011;68717;53.040;18.488;2023-05-18T00:58:26;10.82;;;3.47;;
53618;SDS011;68717;53.040;18.488;2023-05-18T00:58:39;11.23;;;3.30;;
53618;SDS011;68717;53.040;18.488;2023-05-18T00:58:52;13.40;;;3.40;;
53618;SDS011;68717;53.040;18.488;2023-05-18T00:59:06;13.00;;;3.58;;
53618;SDS011;68717;53.040;18.488;2023-05-18T00:59:21;11.48;;;3.50;;
53618;SDS011;68717;53.040;18.488;2023-05-18T00:59:33;10.82;;;3.33;;
53618;SDS011;68717;53.040;18.488;2023-05-18T00:59:46;11.52;;;3.40;;
53618;SDS011;68717;53.040;18.488;2023-05-18T01:00:00;10.43;;;3.38;;
53618;SDS011;68717;53.040;18.488;2023-05-18T01:00:14;11.20;;;3.55;;
53618;SDS011;68717;53.040;18.488;2023-05-18T01:00:26;11.35;;;3.53;;
53618;SDS011;68717;53.040;18.488;2023-05-18T01:00:39;9.07;;;3.33;;
53618;SDS011;68717;53.040;18.488;2023-05-18T01:00:52;8.85;;;3.25;;
53618;SDS011;68717;53.040;18.488;2023-05-18T01:01:06;10.70;;;3.50;;
53618;SDS011;68717;53.040;18.488;2023-05-18T01:01:21;12.57;;;3.40;;
53618;SDS011;68717;53.040;18.488;2023-05-18T01:01:39;10.55;;;3.42;;
53618;SDS011;68717;53.040;18.488;2023-05-18T01:01:55;11.48;;;3.60;;
53618;SDS011;68717;53.040;18.488;2023-05-18T01:02:08;12.32;;;3.60;;
53618;SDS011;68717;53.040;18.488;2023-05-18T01:02:23;11.32;;;3.47;;
53618;SDS011;68717;53.040;18.488;2023-05-18T01:02:36;10.70;;;3.20;;
53618;SDS011;68717;53.040;18.488;2023-05-18T01:02:53;11.88;;;3.42;;
53618;SDS011;68717;53.040;18.488;2023-05-18T01:03:06;11.18;;;3.50;;
53618;SDS011;68717;53.040;18.488;2023-05-18T01:03:22;11.48;;;3.42;;
53618;SDS011;68717;53.040;18.488;2023-05-18T01:03:35;11.20;;;3.50;;
53618;SDS011;68717;53.040;18.488;2023-05-18T01:03:49;10.80;;;3.60;;
53618;SDS011;68717;53.040;18.488;2023-05-18T01:04:07;11.73;;;3.75;;
53618;SDS011;68717;53.040;18.488;2023-05-18T01:04:21;11.60;;;3.72;;
53618;SDS011;68717;53.040;18.488;2023-05-18T01:04:35;9.77;;;3.40;;
53618;SDS011;68717;53.040;18.488;2023-05-18T01:04:48;9.38;;;3.20;;
53618;SDS011;68717;53.040;18.488;2023-05-18T01:05:04;9.60;;;3.25;;
53618;SDS011;68717;53.040;18.488;2023-05-18T01:05:17;9.77;;;3.40;;
53618;SDS011;68717;53.040;18.488;2023-05-18T01:05:31;10.57;;;3.40;;
53618;SDS011;68717;53.040;18.488;2023-05-18T01:05:44;11.32;;;3.22;;
53618;SDS011;68717;53.040;18.488;2023-05-18T01:05:58;10.60;;;3.33;;
53618;SDS011;68717;53.040;18.488;2023-05-18T01:06:10;9.85;;;3.55;;
53618;SDS011;68717;53.040;18.488;2023-05-18T01:06:23;10.00;;;3.70;;
53618;SDS011;68717;53.040;18.488;2023-05-18T01:06:36;10.05;;;3.67;;
53618;SDS011;68717;53.040;18.488;2023-05-18T01:06:52;10.77;;;3.55;;
53618;SDS011;68717;53.040;18.488;2023-05-18T01:07:07;10.65;;;3.30;;
53618;SDS011;68717;53.040;18.488;2023-05-18T01:07:22;10.02;;;3.58;;
53618;SDS011;68717;53.040;18.488;2023-05-18T01:07:38;10.65;;;3.67;;
53618;SDS011;68717;53.040;18.488;2023-05-18T01:07:53;12.35;;;3.58;;
53618;SDS011;68717;53.040;18.488;2023-05-18T01:08:07;11.45;;;3.45;;
53618;SDS011;68717;53.040;18.488;2023-05-18T01:08:21;9.48;;;3.38;;
53618;SDS011;68717;53.040;18.488;2023-05-18T01:08:34;9.18;;;3.20;;
53618;SDS011;68717;53.040;18.488;2023-05-18T01:08:48;11.68;;;3.20;;
53618;SDS011;68717;53.040;18.488;2023-05-18T01:09:02;13.30;;;3.60;;
53618;SDS011;68717;53.040;18.488;2023-05-18T01:09:18;13.20;;;3.70;;
53618;SDS011;68717;53.040;18.488;2023-05-18T01:09:30;13.32;;;3.50;;
53618;SDS011;68717;53.040;18.488;2023-05-18T01:09:44;11.70;;;3.40;;
53618;SDS011;68717;53.040;18.488;2023-05-18T01:09:56;10.05;;;3.50;;
53618;SDS011;68717;53.040;18.488;2023-05-18T01:10:10;9.55;;;3.45;;
53618;SDS011;68717;53.040;18.488;2023-05-18T01:10:24;9.23;;;3.20;;
53618;SDS011;68717;53.040;18.488;2023-05-18T01:10:37;9.45;;;3.20;;
53618;SDS011;68717;53.040;18.488;2023-05-18T01:10:53;10.02;;;3.22;;
53618;SDS011;68717;53.040;18.488;2023-05-18T01:11:10;9.27;;;3.17;;
53618;SDS011;68717;53.040;18.488;2023-05-18T01:11:37;10.75;;;3.50;;
53618;SDS011;68717;53.040;18.488;2023-05-18T01:11:58;13.50;;;3.83;;
53618;SDS011;68717;53.040;18.488;2023-05-18T01:12:16;12.65;;;3.60;;
53618;SDS011;68717;53.040;18.488;2023-05-18T01:12:35;11.23;;;3.45;;
53618;SDS011;68717;53.040;18.488;2023-05-18T01:12:52;10.38;;;3.38;;
53618;SDS011;68717;53.040;18.488;2023-05-18T01:13:08;10.00;;;3.40;;
53618;SDS011;68717;53.040;18.488;2023-05-18T01:13:31;12.15;;;3.38;;
53618;SDS011;68717;53.040;18.488;2023-05-18T01:13:53;12.80;;;3.22;;
53618;SDS011;68717;53.040;18.488;2023-05-18T01:14:19;10.32;;;3.25;;
53618;SDS011;68717;53.040;18.488;2023-05-18T01:14:44;10.52;;;3.50;;
53618;SDS011;68717;53.040;18.488;2023-05-18T01:15:06;10.90;;;3.70;;
53618;SDS011;68717;53.040;18.488;2023-05-18T01:15:21;12.38;;;3.67;;
53618;SDS011;68717;53.040;18.488;2023-05-18T01:15:38;11.43;;;3.25;;
53618;SDS011;68717;53.040;18.488;2023-05-18T01:15:53;10.80;;;3.10;;
53618;SDS011;68717;53.040;18.488;2023-05-18T01:16:08;10.10;;;3.28;;
53618;SDS011;68717;53.040;18.488;2023-05-18T01:16:25;9.75;;;3.25;;
53618;SDS011;68717;53.040;18.488;2023-05-18T01:16:47;12.38;;;3.42;;
53618;SDS011;68717;53.040;18.488;2023-05-18T01:17:09;11.77;;;3.63;;
53618;SDS011;68717;53.040;18.488;2023-05-18T01:17:33;11.85;;;3.42;;
53618;SDS011;68717;53.040;18.488;2023-05-18T01:17:58;11.05;;;3.25;;
53618;SDS011;68717;53.040;18.488;2023-05-18T01:18:18;11.45;;;3.40;;
53618;SDS011;68717;53.040;18.488;2023-05-18T01:18:36;10.77;;;3.50;;
53618;SDS011;68717;53.040;18.488;2023-05-18T01:18:59;12.80;;;3.60;;
53618;SDS011;68717;53.040;18.488;2023-05-18T01:19:22;12.32;;;3.50;;
53618;SDS011;68717;53.040;18.488;2023-05-18T01:20:04;11.55;;;3.90;;
53618;SDS011;68717;53.040;18.488;2023-05-18T01:20:28;11.45;;;3.45;;
53618;SDS011;68717;53.040;18.488;2023-05-18T01:20:50;15.15;;;3.45;;
53618;SDS011;68717;53.040;18.488;2023-05-18T01:21:13;10.90;;;3.45;;
53618;SDS011;68717;53.040;18.488;2023-05-18T01:21:35;10.32;;;3.30;;
53618;SDS011;68717;53.040;18.488;2023-05-18T01:22:02;14.63;;;3.72;;
53618;SDS011;68717;53.040;18.488;2023-05-18T01:22:29;10.82;;;3.40;;
53618;SDS011;68717;53.040;18.488;2023-05-18T01:22:57;9.43;;;3.50;;
53618;SDS011;68717;53.040;18.488;2023-05-18T01:24:02;12.40;;;4.10;;
53618;SDS011;68717;53.040;18.488;2023-05-18T01:24:29;10.68;;;3.33;;
53618;SDS011;68717;53.040;18.488;2023-05-18T01:24:47;10.93;;;3.55;;